Time;durP1;ratioP1;P1;durP2;ratioP2;P2;SDS_P1;SDS_P2;PMS_P1;PMS_P2;Temp;Humidity;BMP_temperature;BMP_pressure;BME280_temperature;BME280_humidity;BME280_pressure;Samples;Min_cycle;Max_cycle;Signal;HPM_P1;HPM_P2
2021/03/07 00:01:16;;;;;;;;;;;;;;;-2.89;100.00;100500.94;5115170;28;19924;-85
2021/03/07 00:03:43;;;;;;;;;;;;;;;-2.81;100.00;100502.97;5079684;28;20299;-85
2021/03/07 00:06:10;;;;;;;;;;;;;;;-2.95;100.00;100504.03;5060276;28;19924;-85
2021/03/07 00:08:37;;;;;;;;;;;;;;;-2.95;100.00;100493.94;5059837;28;20393;-85
2021/03/07 00:11:16;;;;;;;;;;;;;;;-2.87;100.00;100506.91;5073819;28;19924;-85
2021/03/07 00:13:42;;;;;;;;;;;;;;;-2.83;100.00;100497.00;5096451;28;19931;-85
2021/03/07 00:16:09;;;;;;;;;;;;;;;-2.92;100.00;100493.31;5096557;28;19931;-85
2021/03/07 00:18:36;;;;;;;;;;;;;;;-2.87;100.00;100495.16;5080871;28;19924;-85
2021/03/07 00:21:02;;;;;;;;;;;;;;;-2.87;100.00;100489.69;5083836;28;19931;-85
2021/03/07 00:23:29;;;;;;;;;;;;;;;-2.79;100.00;100489.81;5083519;28;20371;-85
2021/03/07 00:25:55;;;;;;;;;;;;;;;-2.67;100.00;100489.31;5083534;28;19924;-84
2021/03/07 00:28:22;;;;;;;;;;;;;;;-2.45;100.00;100497.63;5100421;28;19931;-84
2021/03/07 00:31:03;;;;;;;;;;;;;;;-2.53;100.00;100485.47;5085345;28;19923;-84
2021/03/07 00:33:30;;;;;;;;;;;;;;;-2.58;100.00;100485.59;5063083;28;19978;-84
2021/03/07 00:35:56;;;;;;;;;;;;;;;-2.57;100.00;100484.47;5103532;28;19931;-84
2021/03/07 00:38:23;;;;;;;;;;;;;;;-2.73;100.00;100477.66;5083140;28;19930;-85
2021/03/07 00:40:50;;;;;;;;;;;;;;;-2.70;100.00;100479.81;5082943;28;19927;-84
2021/03/07 00:43:16;;;;;;;;;;;;;;;-2.70;100.00;100474.34;5063134;28;19966;-84
2021/03/07 00:45:43;;;;;;;;;;;;;;;-2.68;100.00;100483.03;5083713;28;19931;-84
2021/03/07 00:48:09;;;;;;;;;;;;;;;-2.57;100.00;100479.00;5083547;28;19965;-84
2021/03/07 00:50:36;;;;;;;;;;;;;;;-2.49;100.00;100483.78;5083360;28;20320;-84
2021/03/07 00:53:03;;;;;;;;;;;;;;;-2.36;100.00;100484.88;5083050;28;19959;-84
2021/03/07 00:55:29;;;;;;;;;;;;;;;-2.37;100.00;100475.03;5100001;28;20403;-84
2021/03/07 00:57:56;;;;;;;;;;;;;;;-2.28;100.00;100482.25;5068479;28;19924;-84
2021/03/07 01:00:24;;;;;;;;;;;;;;;-2.27;100.00;100477.56;5075405;28;19931;-84
2021/03/07 01:02:50;;;;;;;;;;;;;;;-2.34;100.00;100483.47;5082797;28;20395;-84
2021/03/07 01:05:17;;;;;;;;;;;;;;;-2.29;100.00;100477.88;5099606;28;20448;-85
2021/03/07 01:07:46;;;;;;;;;;;;;;;-2.30;100.00;100479.00;5082795;28;20393;-84
2021/03/07 01:10:18;;;;;;;;;;;;;;;-2.13;100.00;100473.72;5079696;28;19969;-85
2021/03/07 01:12:48;;;;;;;;;;;;;;;-2.08;100.00;100470.06;5079342;28;20077;-84
2021/03/07 01:15:17;;;;;;;;;;;;;;;-2.12;100.00;100469.84;5096576;28;19935;-84
2021/03/07 01:17:43;;;;;;;;;;;;;;;-2.07;100.00;100461.53;5065953;28;20455;-84
2021/03/07 01:20:12;;;;;;;;;;;;;;;-2.24;100.00;100455.03;5082510;28;19963;-85
2021/03/07 01:22:42;;;;;;;;;;;;;;;-2.27;100.00;100456.47;5066661;28;20011;-84
2021/03/07 01:25:09;;;;;;;;;;;;;;;-2.30;100.00;100457.09;5085064;28;19924;-84
2021/03/07 01:27:36;;;;;;;;;;;;;;;-2.39;100.00;100442.50;5075180;28;20259;-85
2021/03/07 01:30:09;;;;;;;;;;;;;;;-2.27;100.00;100448.25;5098328;28;19959;-84
2021/03/07 01:32:36;;;;;;;;;;;;;;;-2.19;100.00;100453.03;5095888;28;20376;-84
2021/03/07 01:35:04;;;;;;;;;;;;;;;-2.16;100.00;100444.19;5078766;28;19923;-84
2021/03/07 01:37:31;;;;;;;;;;;;;;;-2.20;100.00;100434.16;5082083;28;19924;-85
2021/03/07 01:39:57;;;;;;;;;;;;;;;-2.27;100.00;100429.09;5078733;28;19974;-84
2021/03/07 01:42:24;;;;;;;;;;;;;;;-2.27;100.00;100429.09;5095524;28;19930;-85
2021/03/07 01:44:50;;;;;;;;;;;;;;;-2.22;100.00;100426.25;5082055;28;19924;-84
2021/03/07 01:47:18;;;;;;;;;;;;;;;-2.13;100.00;100435.38;5098446;28;19993;-84
2021/03/07 01:49:44;;;;;;;;;;;;;;;-2.18;100.00;100427.25;5081544;28;19930;-84
2021/03/07 01:52:11;;;;;;;;;;;;;;;-2.24;100.00;100424.94;5081270;28;19931;-84
2021/03/07 01:54:38;;;;;;;;;;;;;;;-2.37;100.00;100420.28;5064871;28;19923;-84
2021/03/07 01:57:05;;;;;;;;;;;;;;;-2.20;100.00;100426.78;5078164;28;20386;-84
2021/03/07 01:59:32;;;;;;;;;;;;;;;-2.16;100.00;100430.50;5057856;28;19931;-84
2021/03/07 02:01:59;;;;;;;;;;;;;;;-2.21;100.00;100421.56;5041510;28;19931;-84
2021/03/07 02:04:26;;;;;;;;;;;;;;;-2.21;100.00;100422.38;5077924;28;20019;-84
2021/03/07 02:06:53;;;;;;;;;;;;;;;-2.21;100.00;100416.09;5095193;28;19924;-85
2021/03/07 02:09:20;;;;;;;;;;;;;;;-2.03;100.00;100420.66;5078135;28;19924;-84
2021/03/07 02:11:47;;;;;;;;;;;;;;;-1.87;100.00;100417.25;5095066;28;19928;-83
2021/03/07 02:14:14;;;;;;;;;;;;;;;-1.93;100.00;100418.50;5094849;28;19974;-84
2021/03/07 02:16:42;;;;;;;;;;;;;;;-2.02;100.00;100412.13;5094388;28;19924;-83
2021/03/07 02:19:09;;;;;;;;;;;;;;;-2.14;100.00;100409.13;5094283;28;19924;-84
2021/03/07 02:21:50;;;;;;;;;;;;;;;-2.15;100.00;100407.47;5074344;28;20398;-84
2021/03/07 02:24:17;;;;;;;;;;;;;;;-2.17;100.00;100411.66;5065754;28;19931;-84
2021/03/07 02:26:45;;;;;;;;;;;;;;;-2.14;100.00;100400.91;5076599;28;20367;-84
2021/03/07 02:29:12;;;;;;;;;;;;;;;-2.09;100.00;100406.25;5068033;28;20016;-85
2021/03/07 02:31:42;;;;;;;;;;;;;;;-2.07;100.00;100401.28;5094375;28;19967;-85
2021/03/07 02:34:08;;;;;;;;;;;;;;;-1.99;100.00;100397.81;5094070;28;19925;-84
2021/03/07 02:36:42;;;;;;;;;;;;;;;-1.86;100.00;100396.94;5061767;28;20024;-84
2021/03/07 02:39:10;;;;;;;;;;;;;;;-1.87;100.00;100384.38;5077354;28;19924;-84
2021/03/07 02:41:37;;;;;;;;;;;;;;;-1.71;100.00;100381.28;5056346;28;19925;-84
2021/03/07 02:44:06;;;;;;;;;;;;;;;-1.71;100.00;100387.53;5077331;28;19931;-84
2021/03/07 02:46:34;;;;;;;;;;;;;;;-1.78;100.00;100386.34;5057291;28;19978;-84
2021/03/07 02:49:02;;;;;;;;;;;;;;;-1.82;100.00;100378.75;5069821;28;20019;-84
2021/03/07 02:51:31;;;;;;;;;;;;;;;-1.88;100.00;100382.75;5094040;28;19924;-84
2021/03/07 02:53:59;;;;;;;;;;;;;;;-1.81;100.00;100379.56;5077520;28;20016;-84
2021/03/07 02:56:30;;;;;;;;;;;;;;;-1.73;100.00;100375.28;5094369;28;19928;-84
2021/03/07 02:59:02;;;;;;;;;;;;;;;-1.62;100.00;100368.44;5063696;28;19924;-83
2021/03/07 03:01:29;;;;;;;;;;;;;;;-1.64;100.00;100370.66;5079885;28;19930;-84
2021/03/07 03:03:56;;;;;;;;;;;;;;;-1.61;100.00;100370.03;5115440;28;20023;-84
2021/03/07 03:06:23;;;;;;;;;;;;;;;-1.73;100.00;100373.38;5080006;28;20014;-84
2021/03/07 03:08:51;;;;;;;;;;;;;;;-1.65;100.00;100378.06;5080007;28;20413;-84
2021/03/07 03:11:19;;;;;;;;;;;;;;;-1.60;100.00;100371.66;5097175;28;19930;-84
2021/03/07 03:13:49;;;;;;;;;;;;;;;-1.55;100.00;100377.03;5115277;28;19928;-84
2021/03/07 03:16:17;;;;;;;;;;;;;;;-1.54;100.00;100376.72;5077537;28;19935;-84
2021/03/07 03:18:44;;;;;;;;;;;;;;;-1.50;100.00;100374.16;5079838;28;19931;-84
2021/03/07 03:21:12;;;;;;;;;;;;;;;-1.53;100.00;100377.53;5097155;28;19924;-84
2021/03/07 03:23:39;;;;;;;;;;;;;;;-1.44;100.00;100373.72;5079612;28;19955;-84
2021/03/07 03:26:09;;;;;;;;;;;;;;;-1.40;100.00;100366.50;5080022;28;19931;-84
2021/03/07 03:28:37;;;;;;;;;;;;;;;-1.35;100.00;100377.34;5096517;28;19928;-84
2021/03/07 03:31:04;;;;;;;;;;;;;;;-1.43;100.00;100367.13;5079160;28;19923;-84
2021/03/07 03:33:31;;;;;;;;;;;;;;;-1.37;100.00;100367.78;5063461;28;19923;-84
2021/03/07 03:35:57;;;;;;;;;;;;;;;-1.31;100.00;100364.59;5076185;28;19995;-84
2021/03/07 03:38:30;;;;;;;;;;;;;;;-1.18;100.00;100371.13;5071270;28;19924;-84
2021/03/07 03:40:57;;;;;;;;;;;;;;;-1.21;100.00;100360.78;5114463;28;19924;-84
2021/03/07 03:43:26;;;;;;;;;;;;;;;-1.21;100.00;100358.06;5088882;28;19967;-84
2021/03/07 03:45:55;;;;;;;;;;;;;;;-1.17;100.00;100359.84;5079478;28;20374;-84
2021/03/07 03:48:25;;;;;;;;;;;;;;;-1.18;100.00;100357.41;5096457;28;19928;-84
2021/03/07 03:50:53;;;;;;;;;;;;;;;-1.24;100.00;100359.47;5079670;28;19931;-84
2021/03/07 03:53:20;;;;;;;;;;;;;;;-1.15;100.00;100362.28;5096646;28;19924;-84
2021/03/07 03:55:48;;;;;;;;;;;;;;;-1.11;100.00;100357.78;5096194;28;20426;-84
2021/03/07 03:58:16;;;;;;;;;;;;;;;-1.12;100.00;100362.44;5078336;28;20740;-84
2021/03/07 04:00:43;;;;;;;;;;;;;;;-1.29;100.00;100356.06;5062572;28;19924;-85
2021/03/07 04:03:15;;;;;;;;;;;;;;;-1.25;100.00;100351.56;5062793;28;19924;-85
2021/03/07 04:05:44;;;;;;;;;;;;;;;-1.30;100.00;100349.75;5079479;28;19930;-84
2021/03/07 04:08:11;;;;;;;;;;;;;;;-1.29;100.00;100345.09;5081355;28;20369;-85
2021/03/07 04:10:38;;;;;;;;;;;;;;;-1.17;100.00;100339.84;5091283;28;19923;-84
2021/03/07 04:13:05;;;;;;;;;;;;;;;-1.09;100.00;100344.56;5084945;28;19924;-84
2021/03/07 04:15:32;;;;;;;;;;;;;;;-0.94;100.00;100341.38;5075461;28;19924;-84
2021/03/07 04:17:58;;;;;;;;;;;;;;;-0.98;100.00;100340.38;5106207;28;19923;-84
2021/03/07 04:20:26;;;;;;;;;;;;;;;-0.81;100.00;100343.19;5093454;28;19928;-84
2021/03/07 04:22:52;;;;;;;;;;;;;;;-0.60;100.00;100346.97;5079342;28;19930;-84
2021/03/07 04:25:19;;;;;;;;;;;;;;;-0.60;100.00;100346.97;5093266;28;19946;-84
2021/03/07 04:27:48;;;;;;;;;;;;;;;-0.63;100.00;100342.13;5096467;28;19931;-84
2021/03/07 04:30:17;;;;;;;;;;;;;;;-0.59;100.00;100340.38;5095878;28;19924;-84
2021/03/07 04:32:44;;;;;;;;;;;;;;;-0.44;100.00;100334.44;5062547;28;19923;-84
2021/03/07 04:35:12;;;;;;;;;;;;;;;-0.39;100.00;100342.50;5079041;28;19924;-84
2021/03/07 04:37:39;;;;;;;;;;;;;;;-0.26;100.00;100336.06;5110740;28;20030;-84
2021/03/07 04:40:06;;;;;;;;;;;;;;;-0.25;100.00;100340.44;5092925;28;19927;-83
2021/03/07 04:42:33;;;;;;;;;;;;;;;-0.24;100.00;100328.28;5086136;28;19930;-85
2021/03/07 04:45:00;;;;;;;;;;;;;;;-0.45;100.00;100316.31;5061788;28;20008;-85
2021/03/07 04:47:27;;;;;;;;;;;;;;;-0.49;100.00;100316.16;5064298;28;19924;-85
2021/03/07 04:49:54;;;;;;;;;;;;;;;-0.60;100.00;100319.53;5078784;28;19924;-85
2021/03/07 04:52:20;;;;;;;;;;;;;;;-0.58;100.00;100311.78;5070867;28;20291;-85
2021/03/07 04:54:47;;;;;;;;;;;;;;;-0.77;100.00;100309.31;5080294;28;19931;-85
2021/03/07 04:57:14;;;;;;;;;;;;;;;-0.69;100.00;100318.69;5091382;28;19924;-85
2021/03/07 04:59:40;;;;;;;;;;;;;;;-0.74;100.00;100307.84;5078081;28;19924;-85
2021/03/07 05:02:07;;;;;;;;;;;;;;;-0.98;100.00;100310.22;5095500;28;19946;-85
2021/03/07 05:04:34;;;;;;;;;;;;;;;-0.90;100.00;100306.69;5084481;28;19924;-85
2021/03/07 05:07:01;;;;;;;;;;;;;;;-0.85;100.00;100309.28;5099224;28;20342;-85
2021/03/07 05:09:28;;;;;;;;;;;;;;;-0.83;100.00;100305.09;5070801;28;19923;-85
2021/03/07 05:11:54;;;;;;;;;;;;;;;-0.77;100.00;100313.97;5082016;28;19970;-85
2021/03/07 05:14:21;;;;;;;;;;;;;;;-0.75;100.00;100306.25;5081997;28;20442;-86
2021/03/07 05:16:47;;;;;;;;;;;;;;;-0.60;100.00;100308.53;5082224;28;20390;-85
2021/03/07 05:19:14;;;;;;;;;;;;;;;-0.63;100.00;100315.50;5099210;28;20349;-85
2021/03/07 05:21:41;;;;;;;;;;;;;;;-0.51;100.00;100306.63;5099403;28;19931;-85
2021/03/07 05:24:08;;;;;;;;;;;;;;;-0.63;100.00;100303.69;5098796;28;19930;-85
2021/03/07 05:26:34;;;;;;;;;;;;;;;-0.61;100.00;100301.44;5086868;28;20020;-86
2021/03/07 05:29:01;;;;;;;;;;;;;;;-0.57;100.00;100303.22;5082308;28;19923;-85
2021/03/07 05:31:27;;;;;;;;;;;;;;;-0.48;100.00;100311.47;5065091;28;19968;-86
2021/03/07 05:33:54;;;;;;;;;;;;;;;-0.50;100.00;100308.25;5065072;28;19927;-85
2021/03/07 05:36:21;;;;;;;;;;;;;;;-0.54;100.00;100307.25;5098742;28;19928;-85
2021/03/07 05:38:47;;;;;;;;;;;;;;;-0.55;100.00;100302.91;5081718;28;20034;-85
2021/03/07 05:41:16;;;;;;;;;;;;;;;-0.62;100.00;100299.84;5065203;28;20014;-85
2021/03/07 05:43:43;;;;;;;;;;;;;;;-0.72;100.00;100295.44;5080992;28;19959;-85
2021/03/07 05:46:10;;;;;;;;;;;;;;;-0.78;100.00;100302.22;5053749;28;19924;-85
2021/03/07 05:48:36;;;;;;;;;;;;;;;-0.84;100.00;100298.00;5086870;28;20290;-85
2021/03/07 05:51:03;;;;;;;;;;;;;;;-0.88;100.00;100294.25;5111725;28;20390;-85
2021/03/07 05:53:33;;;;;;;;;;;;;;;-0.84;100.00;100294.44;5098987;28;20050;-85
2021/03/07 05:56:00;;;;;;;;;;;;;;;-0.84;100.00;100294.44;5081529;28;20008;-85
2021/03/07 05:58:27;;;;;;;;;;;;;;;-0.82;100.00;100294.94;5086854;28;20295;-85
2021/03/07 06:00:54;;;;;;;;;;;;;;;-0.80;100.00;100289.91;5064809;28;19968;-85
2021/03/07 06:03:21;;;;;;;;;;;;;;;-0.79;100.00;100286.06;5098597;28;19931;-85
2021/03/07 06:05:51;;;;;;;;;;;;;;;-0.51;100.00;100295.63;5098091;28;19969;-85
2021/03/07 06:08:19;;;;;;;;;;;;;;;-0.68;100.00;100284.66;5061002;28;20272;-85
2021/03/07 06:10:46;;;;;;;;;;;;;;;-0.61;100.00;100285.78;5061288;28;19934;-85
2021/03/07 06:13:13;;;;;;;;;;;;;;;-0.33;100.00;100289.84;5098035;28;20358;-85
2021/03/07 06:15:49;;;;;;;;;;;;;;;-0.06;100.00;100286.78;5098391;28;19924;-85
2021/03/07 06:18:17;;;;;;;;;;;;;;;0.14;100.00;100281.75;5080907;28;19935;-86
2021/03/07 06:20:45;;;;;;;;;;;;;;;0.21;100.00;100279.31;5064762;28;20366;-86
2021/03/07 06:23:11;;;;;;;;;;;;;;;0.33;100.00;100276.69;5097797;28;19931;-85
2021/03/07 06:25:51;;;;;;;;;;;;;;;0.43;100.00;100265.34;5097810;28;19930;-85
2021/03/07 06:28:19;;;;;;;;;;;;;;;0.42;100.00;100259.06;5098103;28;19923;-85
2021/03/07 06:30:46;;;;;;;;;;;;;;;0.45;100.00;100255.66;5081192;28;20310;-86
2021/03/07 06:33:26;;;;;;;;;;;;;;;0.49;100.00;100250.28;5108416;28;20362;-86
2021/03/07 06:36:13;;;;;;;;;;;;;;;0.44;100.00;100245.78;5077237;28;20325;-87
2021/03/07 06:38:46;;;;;;;;;;;;;;;0.41;100.00;100243.69;5080800;28;20359;-86
2021/03/07 06:41:17;;;;;;;;;;;;;;;0.43;100.00;100244.16;5090794;28;19924;-85
2021/03/07 06:43:50;;;;;;;;;;;;;;;0.40;100.00;100239.31;5062309;28;20303;-86
2021/03/07 06:46:32;;;;;;;;;;;;;;;0.39;100.00;100231.41;5106405;28;19969;-86
2021/03/07 06:48:59;;;;;;;;;;;;;;;0.40;100.00;100231.06;5065695;28;20388;-86
2021/03/07 06:51:33;;;;;;;;;;;;;;;0.38;100.00;100229.78;5098175;28;20006;-88
2021/03/07 06:54:12;;;;;;;;;;;;;;;0.36;100.00;100224.63;5081146;28;19930;-90
2021/03/07 06:56:39;;;;;;;;;;;;;;;0.36;100.00;100221.88;5061232;28;20279;-90
2021/03/07 06:59:10;;;;;;;;;;;;;;;0.37;100.00;100219.91;5065258;28;20346;-90
2021/03/07 07:01:40;;;;;;;;;;;;;;;0.41;100.00;100224.44;5088210;28;19924;-90
2021/03/07 07:04:07;;;;;;;;;;;;;;;0.42;100.00;100217.81;5052120;28;19931;-91
2021/03/07 07:06:36;;;;;;;;;;;;;;;0.39;100.00;100214.91;5065422;28;19930;-90
2021/03/07 07:09:03;;;;;;;;;;;;;;;0.43;100.00;100219.41;5048648;28;19923;-91
2021/03/07 07:11:40;;;;;;;;;;;;;;;0.45;100.00;100225.41;5049089;28;20359;-90
2021/03/07 07:14:07;;;;;;;;;;;;;;;0.44;100.00;100218.28;5065330;28;19924;-90
2021/03/07 07:16:34;;;;;;;;;;;;;;;0.49;100.00;100225.53;5065311;28;19909;-91
2021/03/07 07:19:02;;;;;;;;;;;;;;;0.55;100.00;100225.03;5048780;28;20026;-91
2021/03/07 07:21:32;;;;;;;;;;;;;;;0.51;100.00;100224.09;5045267;28;19924;-90
2021/03/07 07:23:59;;;;;;;;;;;;;;;0.51;100.00;100215.84;5078404;28;19947;-90
2021/03/07 07:26:26;;;;;;;;;;;;;;;0.62;100.00;100214.31;5047994;28;19928;-90
2021/03/07 07:28:53;;;;;;;;;;;;;;;0.65;100.00;100213.66;5048102;28;19977;-90
2021/03/07 07:31:38;;;;;;;;;;;;;;;0.66;100.00;100209.78;5082052;28;19989;-91
2021/03/07 07:34:07;;;;;;;;;;;;;;;0.70;100.00;100209.91;5064981;28;19923;-91
2021/03/07 07:36:36;;;;;;;;;;;;;;;0.74;100.00;100208.94;5064597;28;20333;-90
2021/03/07 07:39:05;;;;;;;;;;;;;;;0.88;100.00;100205.97;5064461;28;19924;-90
2021/03/07 07:41:34;;;;;;;;;;;;;;;0.90;100.00;100204.47;5081584;28;20004;-91
2021/03/07 07:44:03;;;;;;;;;;;;;;;1.03;100.00;100208.13;5064757;28;20022;-90
2021/03/07 07:46:34;;;;;;;;;;;;;;;1.09;100.00;100204.84;5064583;28;19962;-91
2021/03/07 07:49:01;;;;;;;;;;;;;;;1.32;100.00;100213.59;5082062;28;19924;-90
2021/03/07 07:51:32;;;;;;;;;;;;;;;1.68;100.00;100198.06;5081341;28;19924;-90
2021/03/07 07:53:59;;;;;;;;;;;;;;;1.85;100.00;100208.13;5081696;28;19930;-91
2021/03/07 07:56:42;;;;;;;;;;;;;;;1.93;100.00;100198.97;5064224;28;19927;-90
2021/03/07 07:59:10;;;;;;;;;;;;;;;2.20;100.00;100192.03;5048090;28;20289;-90
2021/03/07 08:01:47;;;;;;;;;;;;;;;2.43;100.00;100191.31;5047975;28;19931;-90
2021/03/07 08:04:26;;;;;;;;;;;;;;;2.90;100.00;100194.44;5081315;28;20366;-91
2021/03/07 08:06:55;;;;;;;;;;;;;;;3.39;100.00;100182.19;5048314;28;19924;-91
2021/03/07 08:09:40;;;;;;;;;;;;;;;3.11;100.00;100170.25;5064809;28;19927;-90
2021/03/07 08:12:27;;;;;;;;;;;;;;;3.36;100.00;100180.13;5081253;28;19923;-91
2021/03/07 08:14:54;;;;;;;;;;;;;;;3.92;100.00;100175.41;5054510;28;19923;-78
2021/03/07 08:17:47;;;;;;;;;;;;;;;4.38;100.00;100161.66;5093711;28;19924;-83
2021/03/07 08:20:33;;;;;;;;;;;;;;;4.98;100.00;100172.25;5093265;28;19924;-85
2021/03/07 08:23:01;;;;;;;;;;;;;;;5.34;100.00;100194.09;5100467;28;20011;-84
2021/03/07 08:25:47;;;;;;;;;;;;;;;5.37;100.00;100171.22;5078686;28;19930;-85
2021/03/07 08:28:26;;;;;;;;;;;;;;;5.97;100.00;100160.59;5078849;28;19924;-85
2021/03/07 08:30:56;;;;;;;;;;;;;;;5.87;100.00;100144.53;5079145;28;19951;-85
2021/03/07 08:33:27;;;;;;;;;;;;;;;4.90;100.00;100120.66;5060614;28;19924;-93
2021/03/07 08:36:10;;;;;;;;;;;;;;;4.91;100.00;100121.44;5097210;28;19923;-79
2021/03/07 08:38:37;;;;;;;;;;;;;;;4.76;100.00;100105.66;5113859;28;19930;-78
2021/03/07 08:41:04;;;;;;;;;;;;;;;4.00;100.00;100114.41;5117163;28;19927;-78
2021/03/07 08:43:31;;;;;;;;;;;;;;;4.51;100.00;100105.09;5117648;28;20412;-79
2021/03/07 08:45:59;;;;;;;;;;;;;;;4.69;100.00;100099.97;5115699;28;20321;-79
2021/03/07 08:48:26;;;;;;;;;;;;;;;4.38;100.00;100102.75;5117797;28;19924;-79
2021/03/07 08:50:54;;;;;;;;;;;;;;;4.03;100.00;100099.88;5117493;28;19984;-78
2021/03/07 08:53:24;;;;;;;;;;;;;;;3.60;100.00;100097.91;5099727;28;19934;-78
2021/03/07 08:55:51;;;;;;;;;;;;;;;3.44;100.00;100099.84;5101530;28;19932;-77
2021/03/07 08:58:18;;;;;;;;;;;;;;;3.53;100.00;100097.72;5091097;28;19927;-79
2021/03/07 09:00:45;;;;;;;;;;;;;;;3.47;100.00;100098.31;5112665;28;20787;-76
2021/03/07 09:03:13;;;;;;;;;;;;;;;3.35;100.00;100043.94;5090401;28;19927;-76
2021/03/07 09:05:40;;;;;;;;;;;;;;;3.17;100.00;100039.06;5094091;28;19927;-76
2021/03/07 09:08:07;;;;;;;;;;;;;;;3.16;100.00;100037.44;5104377;28;19924;-75
2021/03/07 09:10:38;;;;;;;;;;;;;;;3.21;100.00;100028.94;5105569;28;20380;-76
2021/03/07 09:13:24;;;;;;;;;;;;;;;3.34;100.00;100022.19;5111861;28;20508;-76
2021/03/07 09:15:52;;;;;;;;;;;;;;;3.31;100.00;100020.13;5107652;28;19923;-77
2021/03/07 09:18:20;;;;;;;;;;;;;;;3.30;100.00;100018.53;5086581;28;19954;-77
2021/03/07 09:20:46;;;;;;;;;;;;;;;3.30;100.00;100010.25;5101389;28;19928;-78
2021/03/07 09:23:32;;;;;;;;;;;;;;;3.45;100.00;100009.47;5108101;28;19973;-77
2021/03/07 09:26:01;;;;;;;;;;;;;;;3.57;100.00;100009.41;5097028;28;19924;-78
2021/03/07 09:28:43;;;;;;;;;;;;;;;3.66;100.00;99998.97;5066955;28;20374;-77
2021/03/07 09:31:20;;;;;;;;;;;;;;;3.78;100.00;99998.91;5071287;28;19930;-78
2021/03/07 09:33:51;;;;;;;;;;;;;;;3.80;100.00;99999.34;5080230;28;19924;-78
2021/03/07 09:36:18;;;;;;;;;;;;;;;3.65;100.00;99994.59;5073631;28;19933;-77
2021/03/07 09:38:44;;;;;;;;;;;;;;;3.67;100.00;99992.28;5106957;28;19927;-78
2021/03/07 09:41:12;;;;;;;;;;;;;;;3.60;100.00;99986.59;5088648;28;19924;-77
2021/03/07 09:43:39;;;;;;;;;;;;;;;3.71;100.00;99982.13;5092268;28;19923;-78
2021/03/07 09:46:06;;;;;;;;;;;;;;;3.98;100.00;99974.91;5111036;28;19938;-78
2021/03/07 09:48:34;;;;;;;;;;;;;;;4.05;100.00;99975.88;5081832;28;20374;-78
2021/03/07 09:51:05;;;;;;;;;;;;;;;4.29;100.00;99961.81;5073146;28;19923;-79
2021/03/07 09:53:35;;;;;;;;;;;;;;;4.48;100.00;99964.66;5106630;28;19976;-79
2021/03/07 09:56:03;;;;;;;;;;;;;;;4.64;100.00;99965.38;5099919;27;19924;-80
2021/03/07 09:58:36;;;;;;;;;;;;;;;4.73;100.00;99965.16;5105654;28;19931;-81
2021/03/07 10:01:04;;;;;;;;;;;;;;;4.73;100.00;99974.28;5089464;28;19924;-78
2021/03/07 10:03:32;;;;;;;;;;;;;;;4.74;100.00;99970.34;5101448;28;20420;-78
2021/03/07 10:06:06;;;;;;;;;;;;;;;4.60;100.00;99967.28;5102486;28;19927;-79
2021/03/07 10:08:34;;;;;;;;;;;;;;;4.75;100.00;99971.16;5100855;28;19923;-78
2021/03/07 10:11:18;;;;;;;;;;;;;;;4.78;100.00;99964.88;5110439;28;19930;-79
2021/03/07 10:13:45;;;;;;;;;;;;;;;4.92;100.00;99971.50;5081997;28;19931;-77
2021/03/07 10:16:22;;;;;;;;;;;;;;;4.73;100.00;99977.06;5093814;28;19985;-77
2021/03/07 10:19:01;;;;;;;;;;;;;;;4.67;100.00;99974.94;5109298;28;20072;-77
2021/03/07 10:21:31;;;;;;;;;;;;;;;4.73;100.00;99973.47;5080957;28;19928;-77
2021/03/07 10:24:06;;;;;;;;;;;;;;;4.99;100.00;99979.19;5110847;28;19959;-76
2021/03/07 10:26:34;;;;;;;;;;;;;;;4.96;100.00;99983.50;5096866;28;19927;-77
2021/03/07 10:29:06;;;;;;;;;;;;;;;4.82;100.00;99977.66;5111430;28;19923;-78
2021/03/07 10:31:32;;;;;;;;;;;;;;;4.75;100.00;99987.75;5084691;28;19928;-82
2021/03/07 10:33:59;;;;;;;;;;;;;;;4.65;100.00;99986.34;5076551;28;19981;-84
2021/03/07 10:36:26;;;;;;;;;;;;;;;4.32;100.00;99980.47;5111539;28;20005;-78
2021/03/07 10:39:11;;;;;;;;;;;;;;;4.28;100.00;99971.28;5101834;28;19924;-82
2021/03/07 10:41:37;;;;;;;;;;;;;;;4.22;100.00;99963.63;5084701;28;19966;-79
2021/03/07 10:44:05;;;;;;;;;;;;;;;4.19;100.00;99954.09;5088896;28;20015;-79
2021/03/07 10:46:36;;;;;;;;;;;;;;;4.27;100.00;99955.84;5081958;28;19924;-80
2021/03/07 10:49:21;;;;;;;;;;;;;;;4.35;100.00;99948.50;5083652;28;19924;-83
2021/03/07 10:51:47;;;;;;;;;;;;;;;4.27;100.00;99950.31;5096895;28;19939;-81
2021/03/07 10:54:14;;;;;;;;;;;;;;;4.30;100.00;99944.06;5090691;28;19924;-81
2021/03/07 10:56:41;;;;;;;;;;;;;;;4.55;100.00;99939.88;5115253;28;19932;-82
2021/03/07 10:59:09;;;;;;;;;;;;;;;4.46;100.00;99947.59;5097344;28;19923;-87
2021/03/07 11:01:36;;;;;;;;;;;;;;;4.56;100.00;99944.25;5076747;28;19931;-81
2021/03/07 11:04:03;;;;;;;;;;;;;;;4.78;100.00;99945.50;5092794;28;20010;-82
2021/03/07 11:06:29;;;;;;;;;;;;;;;4.95;100.00;99951.41;5105992;28;19924;-83
2021/03/07 11:08:56;;;;;;;;;;;;;;;5.00;100.00;99944.75;5079419;28;19935;-83
2021/03/07 11:11:24;;;;;;;;;;;;;;;4.96;100.00;99944.72;5061671;28;20011;-83
2021/03/07 11:13:50;;;;;;;;;;;;;;;4.97;100.00;99946.31;5077230;28;20403;-84
2021/03/07 11:16:20;;;;;;;;;;;;;;;5.33;100.00;99934.75;5095846;28;19924;-83
2021/03/07 11:18:46;;;;;;;;;;;;;;;5.74;100.00;99933.06;5090376;28;19928;-82
2021/03/07 11:21:13;;;;;;;;;;;;;;;5.79;100.00;99924.47;5096254;28;19924;-81
2021/03/07 11:23:40;;;;;;;;;;;;;;;5.84;100.00;99912.28;5096046;28;19923;-82
2021/03/07 11:26:07;;;;;;;;;;;;;;;5.63;100.00;99923.00;5105356;28;19970;-82
2021/03/07 11:28:33;;;;;;;;;;;;;;;5.69;100.00;99927.06;5085164;28;19931;-81
2021/03/07 11:31:00;;;;;;;;;;;;;;;6.01;100.00;99922.88;5093353;28;19923;-90
2021/03/07 11:33:27;;;;;;;;;;;;;;;6.28;100.00;99930.81;5042512;28;19928;-82
2021/03/07 11:35:54;;;;;;;;;;;;;;;6.40;100.00;99938.94;5087827;28;20378;-82
2021/03/07 11:38:21;;;;;;;;;;;;;;;6.25;100.00;99934.34;5081435;28;19931;-82
2021/03/07 11:40:47;;;;;;;;;;;;;;;6.14;100.00;99943.66;5103003;28;19924;-90
2021/03/07 11:43:14;;;;;;;;;;;;;;;5.95;100.00;99952.91;5090825;28;19924;-89
2021/03/07 11:45:42;;;;;;;;;;;;;;;5.41;100.00;99950.34;5107356;28;19953;-81
2021/03/07 11:48:09;;;;;;;;;;;;;;;5.27;100.00;99954.81;5090909;28;19945;-81
2021/03/07 11:50:36;;;;;;;;;;;;;;;5.41;100.00;99944.78;5117760;28;19927;-81
2021/03/07 11:53:03;;;;;;;;;;;;;;;5.57;100.00;99939.91;5098303;28;20010;-81
2021/03/07 11:55:29;;;;;;;;;;;;;;;5.49;100.00;99943.75;5111862;28;20374;-82
2021/03/07 11:57:56;;;;;;;;;;;;;;;5.75;100.00;99942.22;5096532;28;20309;-84
2021/03/07 12:00:24;;;;;;;;;;;;;;;5.76;100.00;99941.84;5093990;28;19928;-82
2021/03/07 12:02:51;;;;;;;;;;;;;;;5.79;100.00;99927.22;5108006;28;19930;-79
2021/03/07 12:05:17;;;;;;;;;;;;;;;5.94;100.00;99934.63;5094791;28;19930;-79
2021/03/07 12:07:44;;;;;;;;;;;;;;;6.05;100.00;99932.03;5092711;28;19924;-79
2021/03/07 12:10:13;;;;;;;;;;;;;;;6.21;100.00;99924.38;5112935;28;19924;-80
2021/03/07 12:12:39;;;;;;;;;;;;;;;6.42;100.00;99930.22;5112521;28;20298;-80
2021/03/07 12:15:06;;;;;;;;;;;;;;;6.57;100.00;99918.16;5098238;28;19931;-79
2021/03/07 12:17:33;;;;;;;;;;;;;;;6.55;100.00;99912.97;5117229;28;20418;-79
2021/03/07 12:20:02;;;;;;;;;;;;;;;6.62;100.00;99915.03;5096332;28;19963;-79
2021/03/07 12:22:28;;;;;;;;;;;;;;;6.88;100.00;99909.41;5110139;28;20393;-80
2021/03/07 12:24:55;;;;;;;;;;;;;;;6.98;100.00;99908.75;5097535;28;19931;-79
2021/03/07 12:27:22;;;;;;;;;;;;;;;7.05;100.00;99903.25;5090821;28;20022;-78
2021/03/07 12:29:48;;;;;;;;;;;;;;;7.29;100.00;99911.06;5103142;28;20279;-78
2021/03/07 12:32:15;;;;;;;;;;;;;;;7.48;100.00;99899.75;5116840;28;19930;-79
2021/03/07 12:34:41;;;;;;;;;;;;;;;7.43;100.00;99905.66;5116815;28;19924;-80
2021/03/07 12:37:08;;;;;;;;;;;;;;;7.14;100.00;99898.19;5106485;28;20010;-79
2021/03/07 12:39:35;;;;;;;;;;;;;;;7.06;100.00;99902.88;5116526;28;19923;-79
2021/03/07 12:42:02;;;;;;;;;;;;;;;7.26;100.00;99895.97;5116109;28;19930;-79
2021/03/07 12:44:28;;;;;;;;;;;;;;;7.44;100.00;99901.69;5109183;28;19924;-79